Time;durP1;ratioP1;P1;durP2;ratioP2;P2;SDS_P1;SDS_P2;PMS_P1;PMS_P2;Temp;Humidity;BMP_temperature;BMP_pressure;BME280_temperature;BME280_humidity;BME280_pressure;Samples;Min_cycle;Max_cycle;Signal;HPM_P1;HPM_P2
2023/07/07 00:02:22;;;;;;;4.77;1.90;;;;;;;;;;5304673;28;20020;-76
2023/07/07 00:04:53;;;;;;;5.82;1.30;;;;;;;;;;5303650;28;20276;-76
2023/07/07 00:07:25;;;;;;;4.80;1.95;;;;;;;;;;5303243;28;20378;-76
2023/07/07 00:09:56;;;;;;;2.80;1.33;;;;;;;;;;5303858;28;20047;-76
2023/07/07 00:12:30;;;;;;;3.85;1.50;;;;;;;;;;5303884;28;20103;-76
2023/07/07 00:15:01;;;;;;;3.22;1.42;;;;;;;;;;5303176;28;20036;-76
2023/07/07 00:17:32;;;;;;;3.05;1.40;;;;;;;;;;5303971;28;20069;-76
2023/07/07 00:20:04;;;;;;;3.87;1.33;;;;;;;;;;5303758;28;20020;-76
2023/07/07 00:22:36;;;;;;;3.83;1.23;;;;;;;;;;5302884;28;20254;-76
2023/07/07 00:25:07;;;;;;;3.53;1.35;;;;;;;;;;5303881;28;20020;-76
2023/07/07 00:27:38;;;;;;;2.63;1.50;;;;;;;;;;5302773;28;20149;-76
2023/07/07 00:30:10;;;;;;;5.18;2.05;;;;;;;;;;5303730;28;20095;-76
2023/07/07 00:32:41;;;;;;;3.15;1.10;;;;;;;;;;5303090;28;20020;-76
2023/07/07 00:35:12;;;;;;;4.75;1.33;;;;;;;;;;5303050;28;20169;-75
2023/07/07 00:37:43;;;;;;;3.47;1.40;;;;;;;;;;5302971;28;20084;-75
2023/07/07 00:40:17;;;;;;;3.83;1.48;;;;;;;;;;5303860;28;20150;-76
2023/07/07 00:42:48;;;;;;;3.17;1.20;;;;;;;;;;5302201;28;20024;-76
2023/07/07 00:45:20;;;;;;;4.78;1.70;;;;;;;;;;5303634;28;20398;-76
2023/07/07 00:47:51;;;;;;;4.68;1.65;;;;;;;;;;5303117;28;20008;-76
2023/07/07 00:50:25;;;;;;;3.55;1.35;;;;;;;;;;5302833;28;20023;-77
2023/07/07 00:52:56;;;;;;;4.03;1.80;;;;;;;;;;5302946;28;20040;-76
2023/07/07 00:55:30;;;;;;;4.10;1.75;;;;;;;;;;5303159;28;20028;-77
2023/07/07 00:58:03;;;;;;;5.40;1.80;;;;;;;;;;5302264;28;20016;-76
2023/07/07 01:00:36;;;;;;;6.68;2.05;;;;;;;;;;5302988;28;20489;-77
2023/07/07 01:03:13;;;;;;;3.15;1.58;;;;;;;;;;5302162;28;20066;-77
2023/07/07 01:05:44;;;;;;;5.15;1.88;;;;;;;;;;5302659;28;20031;-77
2023/07/07 01:08:16;;;;;;;4.15;1.55;;;;;;;;;;5303202;28;20012;-77
2023/07/07 01:10:48;;;;;;;4.57;1.63;;;;;;;;;;5301713;28;20043;-77
2023/07/07 01:13:19;;;;;;;4.50;1.90;;;;;;;;;;5303375;28;20409;-77
2023/07/07 01:16:12;;;;;;;3.38;1.65;;;;;;;;;;5302528;28;20031;-77
2023/07/07 01:19:02;;;;;;;5.65;1.67;;;;;;;;;;5301623;28;20155;-76
2023/07/07 01:21:40;;;;;;;3.75;1.80;;;;;;;;;;5302665;28;20024;-76
2023/07/07 01:24:35;;;;;;;4.00;1.70;;;;;;;;;;5302442;28;20614;-76
2023/07/07 01:27:07;;;;;;;5.45;1.75;;;;;;;;;;5302646;28;20020;-77
2023/07/07 01:29:44;;;;;;;4.18;1.90;;;;;;;;;;5302463;28;20019;-76
2023/07/07 01:32:18;;;;;;;5.47;2.22;;;;;;;;;;5302233;28;20258;-76
2023/07/07 01:34:53;;;;;;;4.47;1.90;;;;;;;;;;5302284;28;20115;-76
2023/07/07 01:37:24;;;;;;;3.78;2.10;;;;;;;;;;5302508;28;20073;-76
2023/07/07 01:39:55;;;;;;;6.38;2.10;;;;;;;;;;5301734;28;20024;-75
2023/07/07 01:42:36;;;;;;;4.18;1.95;;;;;;;;;;5302713;28;20012;-76
2023/07/07 01:45:14;;;;;;;4.15;1.85;;;;;;;;;;5301861;28;20016;-76
2023/07/07 01:47:55;;;;;;;4.03;1.88;;;;;;;;;;5302270;28;20024;-76
2023/07/07 01:50:27;;;;;;;3.92;1.73;;;;;;;;;;5302721;28;20016;-76
2023/07/07 01:53:02;;;;;;;4.38;1.65;;;;;;;;;;5301371;28;20158;-76
2023/07/07 01:55:34;;;;;;;5.13;2.20;;;;;;;;;;5302426;28;20035;-76
2023/07/07 01:58:07;;;;;;;4.03;1.75;;;;;;;;;;5302444;28;20375;-76
2023/07/07 02:00:38;;;;;;;5.13;2.33;;;;;;;;;;5301465;28;20031;-75
2023/07/07 02:03:10;;;;;;;4.15;2.05;;;;;;;;;;5302560;28;20020;-75
2023/07/07 02:05:41;;;;;;;4.45;2.40;;;;;;;;;;5302088;28;20044;-76
2023/07/07 02:08:13;;;;;;;4.88;2.20;;;;;;;;;;5301930;28;20018;-76
2023/07/07 02:10:44;;;;;;;2.85;1.85;;;;;;;;;;5301879;28;20038;-75
2023/07/07 02:13:15;;;;;;;3.70;2.08;;;;;;;;;;5304831;28;20020;-76
2023/07/07 02:15:47;;;;;;;4.67;1.83;;;;;;;;;;5306146;28;20086;-76
2023/07/07 02:18:18;;;;;;;4.13;2.42;;;;;;;;;;5306693;28;20265;-75
2023/07/07 02:20:50;;;;;;;3.38;1.88;;;;;;;;;;5305109;28;20024;-75
2023/07/07 02:23:21;;;;;;;4.97;1.70;;;;;;;;;;5306365;28;20020;-76
2023/07/07 02:25:52;;;;;;;3.90;2.10;;;;;;;;;;5305962;28;20038;-75
2023/07/07 02:28:23;;;;;;;8.05;2.80;;;;;;;;;;5305431;28;20263;-76
2023/07/07 02:30:55;;;;;;;2.95;1.50;;;;;;;;;;5306146;28;20091;-75
2023/07/07 02:33:31;;;;;;;4.30;1.85;;;;;;;;;;5305829;28;20048;-76
2023/07/07 02:36:03;;;;;;;4.47;1.83;;;;;;;;;;5304844;28;20057;-76
2023/07/07 02:38:35;;;;;;;4.13;2.00;;;;;;;;;;5305992;28;20012;-76
2023/07/07 02:41:06;;;;;;;4.75;1.98;;;;;;;;;;5305876;28;20016;-76
2023/07/07 02:43:37;;;;;;;3.53;1.75;;;;;;;;;;5304972;28;20097;-76
2023/07/07 02:46:08;;;;;;;2.80;1.83;;;;;;;;;;5305785;28;20070;-75
2023/07/07 02:48:39;;;;;;;3.45;1.80;;;;;;;;;;5304535;28;20069;-76
2023/07/07 02:51:11;;;;;;;3.90;1.80;;;;;;;;;;5305943;28;20016;-76
2023/07/07 02:53:42;;;;;;;5.60;1.80;;;;;;;;;;5304973;28;20561;-76
2023/07/07 02:56:13;;;;;;;3.95;1.77;;;;;;;;;;5305145;28;20298;-76
2023/07/07 02:58:44;;;;;;;5.97;1.60;;;;;;;;;;5305175;28;20020;-76
2023/07/07 03:01:17;;;;;;;5.18;2.00;;;;;;;;;;5305994;28;20038;-76
2023/07/07 03:03:49;;;;;;;3.85;1.60;;;;;;;;;;5304226;28;20062;-76
2023/07/07 03:06:22;;;;;;;3.45;1.45;;;;;;;;;;5305709;28;20016;-76
2023/07/07 03:08:53;;;;;;;4.40;1.80;;;;;;;;;;5304868;28;20024;-76
2023/07/07 03:11:24;;;;;;;3.30;1.58;;;;;;;;;;5304459;28;20022;-76
2023/07/07 03:13:55;;;;;;;2.60;1.50;;;;;;;;;;5305002;28;20120;-76
2023/07/07 03:16:30;;;;;;;4.00;1.63;;;;;;;;;;5304621;28;20051;-76
2023/07/07 03:19:06;;;;;;;3.75;1.58;;;;;;;;;;5305075;28;20012;-76
2023/07/07 03:21:38;;;;;;;4.35;2.00;;;;;;;;;;5304820;28;20050;-76
2023/07/07 03:24:09;;;;;;;2.40;1.48;;;;;;;;;;5303612;28;20131;-76
2023/07/07 03:26:40;;;;;;;4.18;1.70;;;;;;;;;;5304480;28;20038;-76
2023/07/07 03:29:11;;;;;;;3.63;1.50;;;;;;;;;;5305113;28;20017;-76
2023/07/07 03:31:43;;;;;;;3.40;1.75;;;;;;;;;;5303484;28;20027;-76
2023/07/07 03:34:14;;;;;;;3.65;1.55;;;;;;;;;;5304860;28;20024;-76
2023/07/07 03:36:45;;;;;;;3.13;1.70;;;;;;;;;;5304324;28;20019;-76
2023/07/07 03:39:16;;;;;;;3.05;1.33;;;;;;;;;;5304232;28;20053;-76
2023/07/07 03:41:48;;;;;;;3.20;1.20;;;;;;;;;;5304137;28;20165;-76
2023/07/07 03:44:19;;;;;;;3.10;1.75;;;;;;;;;;5304879;28;20474;-76
2023/07/07 03:46:50;;;;;;;4.40;1.45;;;;;;;;;;5303273;28;20023;-76
2023/07/07 03:49:21;;;;;;;3.03;1.30;;;;;;;;;;5304920;28;20069;-75
2023/07/07 03:51:53;;;;;;;5.50;1.70;;;;;;;;;;5303069;28;20044;-76
2023/07/07 03:54:24;;;;;;;3.87;1.47;;;;;;;;;;5304272;28;20051;-76
2023/07/07 03:56:55;;;;;;;2.67;1.40;;;;;;;;;;5304093;28;20281;-76
2023/07/07 03:59:26;;;;;;;3.45;1.73;;;;;;;;;;5303486;28;20469;-76
2023/07/07 04:01:57;;;;;;;3.67;1.85;;;;;;;;;;5304052;28;20104;-76
2023/07/07 04:04:29;;;;;;;5.10;1.80;;;;;;;;;;5304110;28;20557;-75
2023/07/07 04:07:00;;;;;;;4.15;1.60;;;;;;;;;;5303157;28;20024;-75
2023/07/07 04:09:31;;;;;;;4.25;1.45;;;;;;;;;;5303847;28;20455;-76
2023/07/07 04:12:06;;;;;;;6.45;1.75;;;;;;;;;;5303810;28;20101;-75
2023/07/07 04:14:37;;;;;;;4.53;1.90;;;;;;;;;;5303000;28;20113;-76
2023/07/07 04:17:08;;;;;;;3.45;1.90;;;;;;;;;;5304025;28;20040;-76
2023/07/07 04:19:40;;;;;;;4.88;3.05;;;;;;;;;;5303482;28;20016;-76
2023/07/07 04:22:11;;;;;;;4.18;2.50;;;;;;;;;;5303164;28;20531;-75
2023/07/07 04:24:42;;;;;;;3.97;1.75;;;;;;;;;;5303436;28;20027;-75
2023/07/07 04:27:13;;;;;;;4.72;1.60;;;;;;;;;;5303319;28;20024;-75
2023/07/07 04:29:44;;;;;;;3.72;1.92;;;;;;;;;;5303506;28;20020;-76
2023/07/07 04:32:16;;;;;;;3.03;1.50;;;;;;;;;;5303832;28;20024;-76
2023/07/07 04:34:47;;;;;;;3.58;1.95;;;;;;;;;;5301639;28;20376;-76
2023/07/07 04:37:18;;;;;;;2.72;1.95;;;;;;;;;;5303932;28;20020;-76
2023/07/07 04:39:49;;;;;;;4.47;2.28;;;;;;;;;;5303214;28;20039;-76
2023/07/07 04:42:20;;;;;;;6.30;2.40;;;;;;;;;;5302872;28;20036;-76
2023/07/07 04:44:52;;;;;;;5.43;2.88;;;;;;;;;;5303012;28;20077;-75
2023/07/07 04:47:23;;;;;;;5.78;1.80;;;;;;;;;;5303335;28;20012;-76
2023/07/07 04:49:54;;;;;;;4.72;2.30;;;;;;;;;;5302305;28;20024;-76
2023/07/07 04:52:25;;;;;;;8.88;2.35;;;;;;;;;;5303043;28;20479;-76
2023/07/07 04:54:56;;;;;;;4.37;2.17;;;;;;;;;;5302130;28;20093;-76
2023/07/07 04:57:28;;;;;;;4.10;2.35;;;;;;;;;;5303001;28;20360;-76
2023/07/07 04:59:59;;;;;;;3.65;2.20;;;;;;;;;;5303218;28;20024;-76
2023/07/07 05:02:32;;;;;;;4.47;2.10;;;;;;;;;;5302444;28;20036;-76
2023/07/07 05:05:04;;;;;;;4.75;2.10;;;;;;;;;;5303022;28;20427;-76
2023/07/07 05:07:35;;;;;;;6.05;2.92;;;;;;;;;;5302919;28;20107;-76
2023/07/07 05:10:07;;;;;;;6.93;2.60;;;;;;;;;;5302041;28;20024;-76
2023/07/07 05:12:38;;;;;;;4.38;2.13;;;;;;;;;;5302713;28;20258;-76
2023/07/07 05:15:09;;;;;;;4.47;2.40;;;;;;;;;;5302943;28;20391;-76
2023/07/07 05:17:40;;;;;;;5.07;2.25;;;;;;;;;;5302012;28;20274;-76
2023/07/07 05:20:12;;;;;;;4.72;2.42;;;;;;;;;;5303015;28;20517;-76
2023/07/07 05:22:43;;;;;;;5.93;2.00;;;;;;;;;;5302728;28;20045;-76
2023/07/07 05:25:14;;;;;;;9.05;2.60;;;;;;;;;;5302279;28;20028;-76
2023/07/07 05:27:45;;;;;;;5.30;2.20;;;;;;;;;;5302669;28;20023;-75
2023/07/07 05:30:16;;;;;;;4.75;2.00;;;;;;;;;;5302218;28;20031;-75
2023/07/07 05:32:48;;;;;;;3.40;2.00;;;;;;;;;;5302326;28;20040;-76
2023/07/07 05:35:19;;;;;;;4.63;2.10;;;;;;;;;;5302785;28;20286;-75
2023/07/07 05:37:50;;;;;;;3.77;1.70;;;;;;;;;;5301411;28;20766;-75
2023/07/07 05:40:21;;;;;;;5.65;2.15;;;;;;;;;;5302885;28;20365;-75
2023/07/07 05:42:53;;;;;;;4.10;1.55;;;;;;;;;;5302191;28;20066;-77
2023/07/07 05:45:24;;;;;;;3.22;1.58;;;;;;;;;;5301636;28;20016;-76
2023/07/07 05:47:55;;;;;;;4.25;1.65;;;;;;;;;;5306523;28;20012;-77
2023/07/07 05:50:27;;;;;;;5.03;1.70;;;;;;;;;;5306882;28;20032;-76
2023/07/07 05:52:58;;;;;;;5.93;2.10;;;;;;;;;;5305608;28;20044;-76
2023/07/07 05:55:32;;;;;;;4.10;1.67;;;;;;;;;;5306638;28;20035;-77
2023/07/07 05:58:04;;;;;;;5.20;1.35;;;;;;;;;;5306259;28;20023;-76
2023/07/07 06:00:35;;;;;;;4.47;1.42;;;;;;;;;;5305938;28;20024;-77
2023/07/07 06:03:06;;;;;;;5.85;1.40;;;;;;;;;;5306517;28;20027;-77
2023/07/07 06:05:37;;;;;;;4.10;1.40;;;;;;;;;;5305519;28;20028;-78
2023/07/07 06:08:09;;;;;;;5.90;1.58;;;;;;;;;;5306329;28;20447;-76
2023/07/07 06:10:40;;;;;;;4.95;1.80;;;;;;;;;;5305790;28;20020;-77
2023/07/07 06:13:11;;;;;;;6.20;1.67;;;;;;;;;;5305816;28;20096;-77
2023/07/07 06:15:43;;;;;;;4.70;1.40;;;;;;;;;;5305815;28;20290;-77
2023/07/07 06:18:14;;;;;;;6.43;1.30;;;;;;;;;;5306776;28;20062;-76
2023/07/07 06:20:52;;;;;;;4.05;1.17;;;;;;;;;;5304793;28;20103;-74
2023/07/07 06:23:24;;;;;;;4.90;1.15;;;;;;;;;;5305926;28;20016;-76
2023/07/07 06:25:55;;;;;;;3.53;1.10;;;;;;;;;;5305758;28;20027;-77
2023/07/07 06:28:26;;;;;;;3.55;1.33;;;;;;;;;;5305300;28;20617;-73
2023/07/07 06:30:57;;;;;;;5.97;1.77;;;;;;;;;;5305873;28;20059;-74
2023/07/07 06:33:29;;;;;;;6.55;1.40;;;;;;;;;;5305077;28;20076;-73
2023/07/07 06:36:00;;;;;;;4.67;1.57;;;;;;;;;;5305917;28;20032;-76
2023/07/07 06:38:31;;;;;;;3.03;1.10;;;;;;;;;;5305661;28;20265;-75
2023/07/07 06:41:03;;;;;;;4.00;1.38;;;;;;;;;;5304931;28;20020;-75
2023/07/07 06:43:34;;;;;;;5.40;1.10;;;;;;;;;;5306109;28;20023;-75
2023/07/07 06:46:05;;;;;;;4.72;1.25;;;;;;;;;;5304930;28;20414;-77
2023/07/07 06:48:36;;;;;;;6.37;1.50;;;;;;;;;;5305051;28;20489;-75
2023/07/07 06:51:08;;;;;;;4.63;1.07;;;;;;;;;;5305604;28;20262;-76
2023/07/07 06:53:39;;;;;;;2.83;0.90;;;;;;;;;;5304656;28;20463;-76
2023/07/07 06:56:11;;;;;;;3.90;1.17;;;;;;;;;;5304797;28;20036;-76
2023/07/07 06:58:42;;;;;;;4.78;1.00;;;;;;;;;;5303250;28;20273;-77
2023/07/07 07:01:13;;;;;;;4.97;1.30;;;;;;;;;;5304042;28;20502;-77
2023/07/07 07:03:44;;;;;;;4.88;1.23;;;;;;;;;;5302034;28;20027;-77
2023/07/07 07:06:16;;;;;;;3.30;0.93;;;;;;;;;;5303449;28;20462;-77
2023/07/07 07:08:47;;;;;;;6.18;1.02;;;;;;;;;;5301661;28;20281;-78
2023/07/07 07:11:18;;;;;;;3.10;1.07;;;;;;;;;;5303565;28;20020;-78
2023/07/07 07:13:50;;;;;;;2.60;0.85;;;;;;;;;;5303239;28;20760;-77
2023/07/07 07:16:21;;;;;;;4.65;1.00;;;;;;;;;;5303596;28;20031;-77
2023/07/07 07:18:53;;;;;;;4.93;1.00;;;;;;;;;;5304471;28;20020;-77
2023/07/07 07:21:24;;;;;;;4.33;0.93;;;;;;;;;;5304909;28;20594;-78
2023/07/07 07:23:55;;;;;;;2.90;0.80;;;;;;;;;;5304072;28;20353;-77
2023/07/07 07:26:26;;;;;;;3.13;0.70;;;;;;;;;;5305000;28;20103;-76
2023/07/07 07:28:57;;;;;;;3.47;0.70;;;;;;;;;;5304890;28;20242;-78
2023/07/07 07:31:29;;;;;;;2.13;0.85;;;;;;;;;;5304111;28;20086;-78
2023/07/07 07:34:18;;;;;;;4.20;0.90;;;;;;;;;;5293699;28;20016;-76
2023/07/07 07:36:50;;;;;;;3.38;0.68;;;;;;;;;;5303339;28;20024;-76
2023/07/07 07:39:22;;;;;;;5.18;0.70;;;;;;;;;;5304683;28;20016;-77
2023/07/07 07:41:54;;;;;;;3.47;0.75;;;;;;;;;;5303666;28;20094;-78
2023/07/07 07:44:25;;;;;;;2.17;0.60;;;;;;;;;;5302970;28;20016;-77
2023/07/07 07:46:57;;;;;;;3.13;0.70;;;;;;;;;;5303675;28;20016;-77
2023/07/07 07:49:29;;;;;;;4.63;0.60;;;;;;;;;;5304236;28;20023;-77
2023/07/07 07:52:00;;;;;;;3.50;0.95;;;;;;;;;;5303092;28;20571;-77
2023/07/07 07:54:31;;;;;;;3.47;0.70;;;;;;;;;;5304055;28;20390;-77
2023/07/07 07:57:03;;;;;;;1.70;0.52;;;;;;;;;;5304104;28;20013;-78
2023/07/07 07:59:34;;;;;;;2.53;0.60;;;;;;;;;;5303275;28;20031;-78
2023/07/07 08:02:08;;;;;;;1.43;0.70;;;;;;;;;;5304065;28;20467;-78
2023/07/07 08:04:39;;;;;;;3.92;0.77;;;;;;;;;;5303867;28;20024;-76
2023/07/07 08:07:10;;;;;;;2.63;0.60;;;;;;;;;;5303320;28;20032;-77
2023/07/07 08:09:41;;;;;;;2.60;0.67;;;;;;;;;;5302770;28;20023;-77
2023/07/07 08:12:13;;;;;;;3.23;0.60;;;;;;;;;;5303389;28;20274;-77
2023/07/07 08:14:44;;;;;;;1.52;0.57;;;;;;;;;;5303254;28;20332;-77
2023/07/07 08:17:15;;;;;;;3.80;0.80;;;;;;;;;;5303983;28;20419;-76
2023/07/07 08:19:46;;;;;;;1.60;0.68;;;;;;;;;;5302519;28;20282;-77
2023/07/07 08:22:20;;;;;;;2.90;0.77;;;;;;;;;;5304063;28;20498;-78
2023/07/07 08:24:53;;;;;;;2.90;0.80;;;;;;;;;;5303387;28;20605;-78
2023/07/07 08:27:25;;;;;;;2.75;0.80;;;;;;;;;;5302530;28;20024;-72
2023/07/07 08:29:57;;;;;;;2.15;0.68;;;;;;;;;;5303381;28;20020;-71
2023/07/07 08:32:36;;;;;;;1.33;0.55;;;;;;;;;;5321329;27;20528;-71
2023/07/07 08:35:09;;;;;;;1.80;0.60;;;;;;;;;;5320425;28;20074;-71
2023/07/07 08:37:40;;;;;;;3.78;0.70;;;;;;;;;;5320559;28;20015;-71
2023/07/07 08:40:22;;;;;;;2.55;0.60;;;;;;;;;;5320467;28;20477;-71
2023/07/07 08:42:53;;;;;;;3.67;0.63;;;;;;;;;;5320677;28;20419;-71
2023/07/07 08:45:24;;;;;;;2.40;0.70;;;;;;;;;;5320923;28;20028;-73
2023/07/07 08:47:58;;;;;;;4.90;0.60;;;;;;;;;;5319886;28;20012;-72
2023/07/07 08:50:37;;;;;;;1.88;0.60;;;;;;;;;;5320662;28;20273;-71
2023/07/07 08:53:24;;;;;;;1.10;0.40;;;;;;;;;;5320714;28;20023;-72
2023/07/07 08:55:58;;;;;;;5.97;0.60;;;;;;;;;;5320438;28;20023;-76
2023/07/07 08:58:49;;;;;;;1.73;0.60;;;;;;;;;;5320916;28;20019;-74
2023/07/07 09:01:32;;;;;;;5.85;0.73;;;;;;;;;;5320108;28;20490;-76
2023/07/07 09:04:22;;;;;;;4.70;0.70;;;;;;;;;;5320725;28;20086;-76
2023/07/07 09:06:59;;;;;;;7.15;0.63;;;;;;;;;;5320284;28;20066;-76
2023/07/07 09:09:30;;;;;;;3.03;0.82;;;;;;;;;;5319667;28;20020;-76
2023/07/07 09:12:06;;;;;;;3.70;0.77;;;;;;;;;;5320572;28;20027;-77
2023/07/07 09:14:38;;;;;;;1.30;0.50;;;;;;;;;;5320639;28;20016;-77
2023/07/07 09:17:18;;;;;;;3.10;0.50;;;;;;;;;;5319716;28;20095;-80
2023/07/07 09:19:50;;;;;;;1.88;0.60;;;;;;;;;;5320059;28;20020;-77
2023/07/07 09:22:21;;;;;;;1.92;0.50;;;;;;;;;;5319660;28;20028;-79
2023/07/07 09:25:04;;;;;;;2.50;0.40;;;;;;;;;;5319975;28;20373;-79
2023/07/07 09:27:39;;;;;;;2.33;0.60;;;;;;;;;;5320039;28;20381;-76
2023/07/07 09:30:21;;;;;;;1.45;0.70;;;;;;;;;;5320520;28;20406;-74
2023/07/07 09:32:53;;;;;;;4.70;0.55;;;;;;;;;;5341126;28;20034;-76
2023/07/07 09:35:27;;;;;;;2.30;0.40;;;;;;;;;;5341412;28;20019;-77
2023/07/07 09:38:01;;;;;;;2.03;0.40;;;;;;;;;;5340550;28;20030;-77
2023/07/07 09:40:32;;;;;;;1.85;0.40;;;;;;;;;;5341249;28;20019;-77
2023/07/07 09:43:12;;;;;;;4.35;0.60;;;;;;;;;;5331870;28;20030;-77
2023/07/07 09:46:03;;;;;;;2.83;0.50;;;;;;;;;;5325953;28;20023;-77
2023/07/07 09:48:39;;;;;;;1.15;0.43;;;;;;;;;;5326857;28;20027;-77
2023/07/07 09:51:16;;;;;;;1.23;0.47;;;;;;;;;;5326057;28;20537;-77
2023/07/07 09:53:48;;;;;;;1.20;0.50;;;;;;;;;;5326472;28;20397;-78
2023/07/07 09:56:22;;;;;;;1.60;0.40;;;;;;;;;;5327181;28;20019;-78
2023/07/07 09:59:02;;;;;;;1.20;0.40;;;;;;;;;;5325474;28;20027;-79
2023/07/07 10:01:36;;;;;;;1.90;0.50;;;;;;;;;;5326605;28;20458;-78
2023/07/07 10:04:11;;;;;;;2.10;0.75;;;;;;;;;;5326599;28;20521;-78
2023/07/07 10:06:54;;;;;;;1.48;0.47;;;;;;;;;;5325510;28;20019;-79
2023/07/07 10:09:28;;;;;;;1.50;0.60;;;;;;;;;;5326429;28;20024;-78
2023/07/07 10:11:59;;;;;;;1.42;0.47;;;;;;;;;;5325317;28;20039;-77
2023/07/07 10:14:31;;;;;;;3.30;0.55;;;;;;;;;;5326185;28;20037;-78
2023/07/07 10:17:08;;;;;;;2.70;0.50;;;;;;;;;;5326437;28;20047;-77
2023/07/07 10:19:43;;;;;;;1.10;0.47;;;;;;;;;;5325345;28;20455;-77
2023/07/07 10:22:14;;;;;;;2.10;0.40;;;;;;;;;;5326205;28;20031;-78
2023/07/07 10:24:45;;;;;;;1.53;0.40;;;;;;;;;;5325470;28;20041;-83
2023/07/07 10:27:18;;;;;;;1.70;0.50;;;;;;;;;;5325714;28;20257;-80
2023/07/07 10:29:49;;;;;;;2.28;0.43;;;;;;;;;;5325618;28;20057;-77
2023/07/07 10:32:22;;;;;;;1.23;0.40;;;;;;;;;;5325941;28;20502;-75
2023/07/07 10:34:57;;;;;;;3.28;0.50;;;;;;;;;;5324595;28;20028;-75
2023/07/07 10:37:29;;;;;;;2.17;0.55;;;;;;;;;;5325957;28;20011;-79
2023/07/07 10:40:01;;;;;;;0.95;0.50;;;;;;;;;;5324981;28;20027;-79
2023/07/07 10:42:32;;;;;;;2.50;0.40;;;;;;;;;;5325595;28;20023;-79
2023/07/07 10:45:04;;;;;;;2.28;0.60;;;;;;;;;;5325691;28;20409;-79
2023/07/07 10:47:37;;;;;;;1.00;0.40;;;;;;;;;;5324786;28;20012;-78
2023/07/07 10:50:13;;;;;;;1.63;0.60;;;;;;;;;;5325357;28;20011;-79
2023/07/07 10:52:44;;;;;;;1.58;0.50;;;;;;;;;;5325219;28;20031;-79
2023/07/07 10:55:23;;;;;;;1.73;0.50;;;;;;;;;;5323452;28;20024;-79
2023/07/07 10:58:08;;;;;;;1.70;0.50;;;;;;;;;;5317024;28;20269;-79
2023/07/07 11:00:52;;;;;;;1.25;0.50;;;;;;;;;;5324190;28;20026;-80
2023/07/07 11:03:42;;;;;;;2.78;0.70;;;;;;;;;;5325079;28;20020;-79
2023/07/07 11:06:24;;;;;;;2.65;0.60;;;;;;;;;;5325441;28;20028;-79
2023/07/07 11:09:09;;;;;;;2.35;0.60;;;;;;;;;;5323618;28;20531;-79
2023/07/07 11:12:01;;;;;;;2.72;0.70;;;;;;;;;;5324554;28;20042;-80
2023/07/07 11:14:50;;;;;;;2.55;0.60;;;;;;;;;;5323097;28;20501;-80
2023/07/07 11:17:33;;;;;;;1.80;0.60;;;;;;;;;;5324900;28;20072;-79
2023/07/07 11:20:05;;;;;;;2.45;0.70;;;;;;;;;;5324767;28;20072;-79
2023/07/07 11:22:39;;;;;;;3.83;0.57;;;;;;;;;;5324036;28;20023;-79
2023/07/07 11:25:29;;;;;;;2.03;0.60;;;;;;;;;;5324984;28;20030;-79
2023/07/07 11:28:00;;;;;;;3.60;0.70;;;;;;;;;;5324658;28;20027;-79
2023/07/07 11:30:50;;;;;;;1.97;0.70;;;;;;;;;;5323769;28;20443;-79
2023/07/07 11:33:51;;;;;;;2.60;0.60;;;;;;;;;;5324856;28;20103;-80
2023/07/07 11:36:34;;;;;;;2.35;0.90;;;;;;;;;;5251024;28;20034;-80
2023/07/07 11:39:11;;;;;;;1.30;0.50;;;;;;;;;;5324066;28;20103;-79
2023/07/07 11:41:48;;;;;;;2.88;0.55;;;;;;;;;;5323877;28;20390;-80
2023/07/07 11:44:25;;;;;;;2.88;0.70;;;;;;;;;;5323957;28;20034;-77
2023/07/07 11:47:02;;;;;;;2.63;0.70;;;;;;;;;;5324436;28;20055;-75
2023/07/07 11:49:39;;;;;;;1.42;0.60;;;;;;;;;;5324409;28;20020;-78
2023/07/07 11:52:16;;;;;;;1.60;0.60;;;;;;;;;;5323419;28;20132;-78
2023/07/07 11:54:52;;;;;;;3.35;0.70;;;;;;;;;;5324033;28;20047;-78
2023/07/07 11:57:42;;;;;;;3.90;0.70;;;;;;;;;;5323308;28;20107;-78
2023/07/07 12:00:22;;;;;;;3.42;0.70;;;;;;;;;;5324240;28;20196;-78
2023/07/07 12:02:55;;;;;;;3.35;0.85;;;;;;;;;;5323764;28;20475;-78
2023/07/07 12:05:30;;;;;;;1.95;0.70;;;;;;;;;;5322909;28;20019;-81
2023/07/07 12:08:09;;;;;;;1.75;0.70;;;;;;;;;;5323969;28;20025;-83
2023/07/07 12:10:43;;;;;;;1.60;0.60;;;;;;;;;;5323444;28;20028;-80
2023/07/07 12:13:21;;;;;;;2.55;0.50;;;;;;;;;;5323472;28;20012;-78
2023/07/07 12:16:01;;;;;;;1.75;0.50;;;;;;;;;;5305363;28;20027;-78
2023/07/07 12:18:35;;;;;;;2.28;0.68;;;;;;;;;;5323310;28;20012;-78
2023/07/07 12:21:10;;;;;;;1.48;0.60;;;;;;;;;;5323676;28;20111;-78
2023/07/07 12:23:46;;;;;;;2.15;0.60;;;;;;;;;;5323681;28;20022;-79
2023/07/07 12:26:19;;;;;;;4.38;0.60;;;;;;;;;;5323576;28;20470;-78
2023/07/07 12:28:53;;;;;;;1.65;0.60;;;;;;;;;;5323392;28;20031;-78
2023/07/07 12:31:25;;;;;;;2.22;0.52;;;;;;;;;;5323378;28;20048;-78
2023/07/07 12:33:57;;;;;;;2.50;0.57;;;;;;;;;;5322733;28;20016;-78
2023/07/07 12:36:29;;;;;;;1.60;0.60;;;;;;;;;;5323744;28;20153;-78
2023/07/07 12:39:02;;;;;;;2.72;0.50;;;;;;;;;;5323484;28;20260;-78
2023/07/07 12:41:35;;;;;;;2.72;0.60;;;;;;;;;;5322681;28;20011;-77
2023/07/07 12:44:10;;;;;;;1.42;0.60;;;;;;;;;;5323333;28;20026;-77
2023/07/07 12:46:41;;;;;;;2.88;0.80;;;;;;;;;;5322701;28;20359;-78
2023/07/07 12:49:21;;;;;;;2.60;0.53;;;;;;;;;;5324010;28;20034;-76
2023/07/07 12:51:54;;;;;;;2.13;0.70;;;;;;;;;;5323241;28;20327;-78
2023/07/07 12:54:35;;;;;;;3.10;0.80;;;;;;;;;;5322727;28;20019;-78
2023/07/07 12:57:19;;;;;;;1.77;0.60;;;;;;;;;;5323777;28;20020;-78
2023/07/07 12:59:51;;;;;;;2.05;0.70;;;;;;;;;;5323386;28;20032;-77
2023/07/07 13:02:23;;;;;;;3.05;0.70;;;;;;;;;;5322944;28;20054;-79
2023/07/07 13:04:59;;;;;;;2.78;1.00;;;;;;;;;;5323164;28;20020;-77
2023/07/07 13:07:31;;;;;;;4.60;0.98;;;;;;;;;;5322659;28;20022;-77
2023/07/07 13:10:22;;;;;;;1.40;0.73;;;;;;;;;;5323499;28;20072;-77
2023/07/07 13:12:54;;;;;;;2.03;0.70;;;;;;;;;;5322558;28;20035;-76
2023/07/07 13:15:26;;;;;;;1.92;0.70;;;;;;;;;;5322399;28;20418;-76
2023/07/07 13:17:57;;;;;;;3.83;0.65;;;;;;;;;;5324736;28;20491;-76
2023/07/07 13:20:29;;;;;;;3.58;0.77;;;;;;;;;;5327337;28;20486;-77
2023/07/07 13:23:05;;;;;;;2.08;0.88;;;;;;;;;;5326604;28;20034;-73
2023/07/07 13:25:37;;;;;;;2.10;0.70;;;;;;;;;;5327166;28;20023;-78
2023/07/07 13:28:10;;;;;;;4.57;0.98;;;;;;;;;;5326758;28;20008;-78
2023/07/07 13:30:43;;;;;;;1.30;0.57;;;;;;;;;;5324822;28;20040;-79
2023/07/07 13:33:16;;;;;;;2.42;0.55;;;;;;;;;;5324941;28;20020;-78
2023/07/07 13:35:53;;;;;;;2.58;0.60;;;;;;;;;;5324388;28;20034;-78
2023/07/07 13:38:27;;;;;;;1.92;0.60;;;;;;;;;;5326853;28;20386;-79
2023/07/07 13:41:01;;;;;;;3.00;0.80;;;;;;;;;;5327100;28;20015;-78
2023/07/07 13:43:35;;;;;;;2.17;0.55;;;;;;;;;;5326244;28;20032;-77
2023/07/07 13:46:11;;;;;;;1.70;0.70;;;;;;;;;;5326831;28;20083;-78
2023/07/07 13:48:45;;;;;;;1.65;0.80;;;;;;;;;;5326268;28;20016;-77
2023/07/07 13:51:21;;;;;;;2.20;0.80;;;;;;;;;;5326256;28;20381;-77
2023/07/07 13:53:53;;;;;;;1.70;0.88;;;;;;;;;;5326397;28;20161;-78
2023/07/07 13:56:25;;;;;;;3.28;0.90;;;;;;;;;;5326770;28;20102;-79
2023/07/07 13:58:57;;;;;;;2.22;0.90;;;;;;;;;;5325848;28;20020;-77
2023/07/07 14:01:36;;;;;;;2.25;0.90;;;;;;;;;;5326393;28;20034;-78
2023/07/07 14:04:14;;;;;;;1.90;0.80;;;;;;;;;;5325544;28;20023;-77
2023/07/07 14:06:45;;;;;;;;;;;;;;;;;;5326331;28;20023;-73
2023/07/07 14:09:23;;;;;;;2.33;1.00;;;;;;;;;;5326658;28;19904;-74
2023/07/07 14:11:59;;;;;;;4.40;0.90;;;;;;;;;;5325123;28;20039;-74
2023/07/07 14:14:30;;;;;;;2.42;1.00;;;;;;;;;;5326521;28;20351;-76
2023/07/07 14:17:05;;;;;;;1.60;0.80;;;;;;;;;;5326333;28;20027;-76
2023/07/07 14:19:45;;;;;;;1.30;0.80;;;;;;;;;;5325411;28;20020;-77
2023/07/07 14:22:17;;;;;;;1.45;0.80;;;;;;;;;;5326210;28;20080;-78
2023/07/07 14:24:49;;;;;;;3.08;1.20;;;;;;;;;;5324980;28;20024;-76
2023/07/07 14:27:21;;;;;;;4.90;1.08;;;;;;;;;;5326160;28;20046;-77
2023/07/07 14:29:52;;;;;;;3.70;0.98;;;;;;;;;;5325585;28;20095;-76
2023/07/07 14:32:26;;;;;;;2.33;0.73;;;;;;;;;;5324792;28;20051;-76
2023/07/07 14:34:58;;;;;;;3.75;1.08;;;;;;;;;;5326058;28;20027;-77
2023/07/07 14:37:36;;;;;;;2.38;0.80;;;;;;;;;;5325810;28;20016;-78
2023/07/07 14:40:27;;;;;;;2.40;1.00;;;;;;;;;;5325183;28;20041;-77
2023/07/07 14:43:02;;;;;;;3.90;0.90;;;;;;;;;;5325540;28;20023;-78
2023/07/07 14:45:33;;;;;;;1.90;0.90;;;;;;;;;;5325687;28;20023;-78
2023/07/07 14:48:04;;;;;;;3.92;1.00;;;;;;;;;;5325045;28;20019;-77
2023/07/07 14:50:35;;;;;;;3.95;1.05;;;;;;;;;;5325575;28;20040;-77
2023/07/07 14:53:09;;;;;;;2.97;1.20;;;;;;;;;;5324698;28;20161;-76
2023/07/07 14:55:46;;;;;;;1.60;0.90;;;;;;;;;;5325064;28;20020;-78
2023/07/07 14:58:19;;;;;;;3.78;1.02;;;;;;;;;;5325816;28;20063;-78
2023/07/07 15:01:02;;;;;;;7.95;1.27;;;;;;;;;;5324015;28;20020;-79
2023/07/07 15:03:36;;;;;;;4.05;1.40;;;;;;;;;;5325295;28;20477;-77
2023/07/07 15:06:08;;;;;;;2.55;1.50;;;;;;;;;;5325109;28;20092;-77
2023/07/07 15:08:43;;;;;;;2.97;1.23;;;;;;;;;;5324230;28;20016;-77
2023/07/07 15:11:14;;;;;;;2.22;1.20;;;;;;;;;;5325406;28;20023;-77
2023/07/07 15:13:45;;;;;;;4.55;1.27;;;;;;;;;;5324820;28;20024;-79
2023/07/07 15:16:21;;;;;;;3.53;1.33;;;;;;;;;;5324350;28;20019;-77
2023/07/07 15:18:52;;;;;;;3.40;1.25;;;;;;;;;;5324737;28;20727;-77
2023/07/07 15:21:25;;;;;;;2.90;1.50;;;;;;;;;;5324090;28;20087;-78
2023/07/07 15:23:57;;;;;;;3.33;1.38;;;;;;;;;;5324744;28;20020;-77